sensor_id;sensor_type;location;lat;lon;timestamp;P1;durP1;ratioP1;P2;durP2;ratioP2
65996;SDS011;52765;52.258;21.052;2023-04-12T00:00:11;24.98;;;15.15;;
65996;SDS011;52765;52.258;21.052;2023-04-12T00:02:37;29.73;;;15.82;;
65996;SDS011;52765;52.258;21.052;2023-04-12T00:05:03;23.10;;;13.95;;
65996;SDS011;52765;52.258;21.052;2023-04-12T00:07:29;25.48;;;13.93;;
65996;SDS011;52765;52.258;21.052;2023-04-12T00:09:54;24.85;;;13.35;;
65996;SDS011;52765;52.258;21.052;2023-04-12T00:12:20;26.05;;;13.65;;
65996;SDS011;52765;52.258;21.052;2023-04-12T00:14:46;26.77;;;14.60;;
65996;SDS011;52765;52.258;21.052;2023-04-12T00:17:30;22.67;;;13.90;;
65996;SDS011;52765;52.258;21.052;2023-04-12T00:19:55;22.27;;;12.70;;
65996;SDS011;52765;52.258;21.052;2023-04-12T00:22:21;25.20;;;12.32;;
65996;SDS011;52765;52.258;21.052;2023-04-12T00:24:47;22.33;;;12.60;;
65996;SDS011;52765;52.258;21.052;2023-04-12T00:27:12;21.83;;;12.07;;
65996;SDS011;52765;52.258;21.052;2023-04-12T00:29:38;20.25;;;12.38;;
65996;SDS011;52765;52.258;21.052;2023-04-12T00:32:03;23.25;;;12.82;;
65996;SDS011;52765;52.258;21.052;2023-04-12T00:34:30;21.98;;;12.75;;
65996;SDS011;52765;52.258;21.052;2023-04-12T00:36:55;25.45;;;15.77;;
65996;SDS011;52765;52.258;21.052;2023-04-12T00:39:21;25.30;;;15.68;;
65996;SDS011;52765;52.258;21.052;2023-04-12T00:41:47;29.60;;;16.80;;
65996;SDS011;52765;52.258;21.052;2023-04-12T00:44:13;29.25;;;16.33;;
65996;SDS011;52765;52.258;21.052;2023-04-12T00:46:38;28.67;;;14.82;;
65996;SDS011;52765;52.258;21.052;2023-04-12T00:49:05;25.45;;;13.85;;
65996;SDS011;52765;52.258;21.052;2023-04-12T00:51:31;22.73;;;12.07;;
65996;SDS011;52765;52.258;21.052;2023-04-12T00:53:57;21.33;;;12.50;;
65996;SDS011;52765;52.258;21.052;2023-04-12T00:56:24;22.30;;;12.75;;
65996;SDS011;52765;52.258;21.052;2023-04-12T00:58:51;20.90;;;11.05;;
65996;SDS011;52765;52.258;21.052;2023-04-12T01:01:17;18.45;;;11.82;;
65996;SDS011;52765;52.258;21.052;2023-04-12T01:03:43;23.70;;;13.02;;
65996;SDS011;52765;52.258;21.052;2023-04-12T01:06:21;20.20;;;12.27;;
65996;SDS011;52765;52.258;21.052;2023-04-12T01:17:51;22.58;;;12.15;;
65996;SDS011;52765;52.258;21.052;2023-04-12T01:20:36;19.33;;;11.63;;
65996;SDS011;52765;52.258;21.052;2023-04-12T01:28:33;22.77;;;12.18;;
65996;SDS011;52765;52.258;21.052;2023-04-12T01:31:02;22.38;;;12.50;;
65996;SDS011;52765;52.258;21.052;2023-04-12T01:33:29;22.67;;;12.63;;
65996;SDS011;52765;52.258;21.052;2023-04-12T01:35:59;24.48;;;13.00;;
65996;SDS011;52765;52.258;21.052;2023-04-12T01:38:26;22.52;;;13.32;;
65996;SDS011;52765;52.258;21.052;2023-04-12T01:40:53;22.60;;;12.35;;
65996;SDS011;52765;52.258;21.052;2023-04-12T01:43:19;24.17;;;13.85;;
65996;SDS011;52765;52.258;21.052;2023-04-12T01:45:45;25.95;;;13.13;;
65996;SDS011;52765;52.258;21.052;2023-04-12T01:48:14;22.73;;;12.68;;
65996;SDS011;52765;52.258;21.052;2023-04-12T01:53:48;27.92;;;15.48;;
65996;SDS011;52765;52.258;21.052;2023-04-12T01:56:18;29.80;;;15.00;;
65996;SDS011;52765;52.258;21.052;2023-04-12T01:58:47;27.58;;;15.07;;
65996;SDS011;52765;52.258;21.052;2023-04-12T02:01:14;34.70;;;15.82;;
65996;SDS011;52765;52.258;21.052;2023-04-12T02:03:43;28.70;;;15.35;;
65996;SDS011;52765;52.258;21.052;2023-04-12T02:06:19;23.95;;;13.52;;
65996;SDS011;52765;52.258;21.052;2023-04-12T02:08:46;27.80;;;15.27;;
65996;SDS011;52765;52.258;21.052;2023-04-12T02:11:13;28.75;;;15.48;;
65996;SDS011;52765;52.258;21.052;2023-04-12T02:13:41;26.58;;;15.07;;
65996;SDS011;52765;52.258;21.052;2023-04-12T02:16:09;27.10;;;14.35;;
65996;SDS011;52765;52.258;21.052;2023-04-12T02:18:38;29.23;;;15.85;;
65996;SDS011;52765;52.258;21.052;2023-04-12T02:21:05;26.88;;;15.23;;
65996;SDS011;52765;52.258;21.052;2023-04-12T02:23:31;26.23;;;14.13;;
65996;SDS011;52765;52.258;21.052;2023-04-12T02:25:56;30.17;;;14.75;;
65996;SDS011;52765;52.258;21.052;2023-04-12T02:28:22;31.67;;;13.80;;
65996;SDS011;52765;52.258;21.052;2023-04-12T02:30:47;27.08;;;14.80;;
65996;SDS011;52765;52.258;21.052;2023-04-12T02:33:17;28.10;;;14.25;;
65996;SDS011;52765;52.258;21.052;2023-04-12T02:35:42;24.35;;;14.25;;
65996;SDS011;52765;52.258;21.052;2023-04-12T02:38:08;28.00;;;13.93;;
65996;SDS011;52765;52.258;21.052;2023-04-12T02:40:33;25.17;;;14.18;;
65996;SDS011;52765;52.258;21.052;2023-04-12T02:43:02;25.40;;;13.85;;
65996;SDS011;52765;52.258;21.052;2023-04-12T02:45:28;22.48;;;13.30;;
65996;SDS011;52765;52.258;21.052;2023-04-12T02:47:53;23.70;;;14.07;;
65996;SDS011;52765;52.258;21.052;2023-04-12T02:50:19;27.05;;;14.48;;
65996;SDS011;52765;52.258;21.052;2023-04-12T02:52:44;24.65;;;14.07;;
65996;SDS011;52765;52.258;21.052;2023-04-12T02:55:10;25.38;;;13.88;;
65996;SDS011;52765;52.258;21.052;2023-04-12T02:57:36;23.10;;;14.52;;
65996;SDS011;52765;52.258;21.052;2023-04-12T03:00:02;23.90;;;13.93;;
65996;SDS011;52765;52.258;21.052;2023-04-12T03:02:33;26.95;;;14.27;;
65996;SDS011;52765;52.258;21.052;2023-04-12T03:05:01;23.60;;;14.23;;
65996;SDS011;52765;52.258;21.052;2023-04-12T03:07:28;25.90;;;13.98;;
65996;SDS011;52765;52.258;21.052;2023-04-12T03:09:54;25.60;;;14.93;;
65996;SDS011;52765;52.258;21.052;2023-04-12T03:12:20;25.20;;;14.27;;
65996;SDS011;52765;52.258;21.052;2023-04-12T03:14:50;23.20;;;13.65;;
65996;SDS011;52765;52.258;21.052;2023-04-12T03:17:16;25.67;;;13.73;;
65996;SDS011;52765;52.258;21.052;2023-04-12T03:19:41;25.48;;;14.20;;
65996;SDS011;52765;52.258;21.052;2023-04-12T03:22:07;22.55;;;14.45;;
65996;SDS011;52765;52.258;21.052;2023-04-12T03:24:32;26.50;;;14.75;;
65996;SDS011;52765;52.258;21.052;2023-04-12T03:27:01;24.35;;;13.80;;
65996;SDS011;52765;52.258;21.052;2023-04-12T03:29:27;25.15;;;14.50;;
65996;SDS011;52765;52.258;21.052;2023-04-12T03:31:58;24.65;;;14.20;;
65996;SDS011;52765;52.258;21.052;2023-04-12T03:34:26;25.95;;;14.82;;
65996;SDS011;52765;52.258;21.052;2023-04-12T03:36:56;23.45;;;13.90;;
65996;SDS011;52765;52.258;21.052;2023-04-12T03:39:22;30.33;;;15.90;;
65996;SDS011;52765;52.258;21.052;2023-04-12T03:41:48;25.00;;;14.05;;
65996;SDS011;52765;52.258;21.052;2023-04-12T03:44:14;26.60;;;15.00;;
65996;SDS011;52765;52.258;21.052;2023-04-12T03:46:39;26.08;;;15.50;;
65996;SDS011;52765;52.258;21.052;2023-04-12T03:49:05;25.02;;;14.52;;
65996;SDS011;52765;52.258;21.052;2023-04-12T03:51:30;26.65;;;15.07;;
65996;SDS011;52765;52.258;21.052;2023-04-12T03:53:59;30.52;;;15.43;;
65996;SDS011;52765;52.258;21.052;2023-04-12T03:56:26;26.23;;;14.82;;
65996;SDS011;52765;52.258;21.052;2023-04-12T03:58:52;25.95;;;14.82;;
65996;SDS011;52765;52.258;21.052;2023-04-12T04:01:18;28.20;;;15.77;;
65996;SDS011;52765;52.258;21.052;2023-04-12T04:03:43;24.30;;;14.27;;
65996;SDS011;52765;52.258;21.052;2023-04-12T04:06:09;43.55;;;22.95;;
65996;SDS011;52765;52.258;21.052;2023-04-12T04:08:35;28.85;;;15.23;;
65996;SDS011;52765;52.258;21.052;2023-04-12T04:11:01;30.35;;;17.13;;
65996;SDS011;52765;52.258;21.052;2023-04-12T04:13:27;28.90;;;15.73;;
65996;SDS011;52765;52.258;21.052;2023-04-12T04:16:02;25.30;;;15.40;;
65996;SDS011;52765;52.258;21.052;2023-04-12T04:18:29;28.05;;;15.32;;
65996;SDS011;52765;52.258;21.052;2023-04-12T04:20:55;27.45;;;14.93;;
65996;SDS011;52765;52.258;21.052;2023-04-12T04:23:21;27.75;;;15.93;;
65996;SDS011;52765;52.258;21.052;2023-04-12T04:25:47;31.08;;;17.25;;
65996;SDS011;52765;52.258;21.052;2023-04-12T04:28:13;28.48;;;15.73;;
65996;SDS011;52765;52.258;21.052;2023-04-12T04:30:40;24.40;;;14.65;;
65996;SDS011;52765;52.258;21.052;2023-04-12T04:33:06;28.45;;;15.70;;
65996;SDS011;52765;52.258;21.052;2023-04-12T04:35:32;28.70;;;15.20;;
65996;SDS011;52765;52.258;21.052;2023-04-12T04:37:58;28.23;;;16.17;;
65996;SDS011;52765;52.258;21.052;2023-04-12T04:40:25;28.58;;;14.90;;
65996;SDS011;52765;52.258;21.052;2023-04-12T04:42:51;27.55;;;15.32;;
65996;SDS011;52765;52.258;21.052;2023-04-12T04:45:22;31.13;;;16.38;;
65996;SDS011;52765;52.258;21.052;2023-04-12T04:47:52;26.98;;;14.73;;
65996;SDS011;52765;52.258;21.052;2023-04-12T04:50:21;34.42;;;14.88;;
65996;SDS011;52765;52.258;21.052;2023-04-12T04:52:50;31.40;;;14.95;;
65996;SDS011;52765;52.258;21.052;2023-04-12T04:55:16;28.55;;;15.32;;
65996;SDS011;52765;52.258;21.052;2023-04-12T04:57:42;29.13;;;16.20;;
65996;SDS011;52765;52.258;21.052;2023-04-12T05:00:08;26.63;;;15.25;;
65996;SDS011;52765;52.258;21.052;2023-04-12T05:02:40;25.67;;;15.07;;
65996;SDS011;52765;52.258;21.052;2023-04-12T05:05:08;25.92;;;15.07;;
65996;SDS011;52765;52.258;21.052;2023-04-12T05:07:34;32.63;;;14.63;;
65996;SDS011;52765;52.258;21.052;2023-04-12T05:10:03;29.98;;;14.55;;
65996;SDS011;52765;52.258;21.052;2023-04-12T05:12:29;32.70;;;16.25;;
65996;SDS011;52765;52.258;21.052;2023-04-12T05:14:55;32.92;;;16.13;;
65996;SDS011;52765;52.258;21.052;2023-04-12T05:17:21;25.90;;;14.95;;
65996;SDS011;52765;52.258;21.052;2023-04-12T05:19:46;26.48;;;15.07;;
65996;SDS011;52765;52.258;21.052;2023-04-12T05:22:12;26.73;;;14.68;;
65996;SDS011;52765;52.258;21.052;2023-04-12T05:24:44;32.00;;;15.88;;
65996;SDS011;52765;52.258;21.052;2023-04-12T05:27:09;26.45;;;13.88;;
65996;SDS011;52765;52.258;21.052;2023-04-12T05:29:35;31.33;;;15.23;;
65996;SDS011;52765;52.258;21.052;2023-04-12T05:32:01;30.40;;;15.73;;
65996;SDS011;52765;52.258;21.052;2023-04-12T05:34:26;28.02;;;15.13;;
65996;SDS011;52765;52.258;21.052;2023-04-12T05:36:52;29.40;;;15.23;;
65996;SDS011;52765;52.258;21.052;2023-04-12T05:39:17;28.25;;;15.32;;
65996;SDS011;52765;52.258;21.052;2023-04-12T05:41:43;29.42;;;15.25;;
65996;SDS011;52765;52.258;21.052;2023-04-12T05:44:11;32.42;;;16.60;;
65996;SDS011;52765;52.258;21.052;2023-04-12T05:46:36;30.25;;;16.77;;
65996;SDS011;52765;52.258;21.052;2023-04-12T05:49:02;29.00;;;15.98;;
65996;SDS011;52765;52.258;21.052;2023-04-12T05:51:27;33.45;;;17.42;;
65996;SDS011;52765;52.258;21.052;2023-04-12T05:53:53;34.35;;;18.58;;
65996;SDS011;52765;52.258;21.052;2023-04-12T05:56:18;33.65;;;17.92;;
65996;SDS011;52765;52.258;21.052;2023-04-12T05:58:44;32.50;;;17.15;;
65996;SDS011;52765;52.258;21.052;2023-04-12T06:01:11;34.78;;;18.48;;
65996;SDS011;52765;52.258;21.052;2023-04-12T06:03:37;34.65;;;18.13;;
65996;SDS011;52765;52.258;21.052;2023-04-12T06:06:05;32.80;;;18.48;;
65996;SDS011;52765;52.258;21.052;2023-04-12T06:08:31;39.15;;;19.55;;
65996;SDS011;52765;52.258;21.052;2023-04-12T06:10:57;41.83;;;21.15;;
65996;SDS011;52765;52.258;21.052;2023-04-12T06:13:22;39.67;;;20.02;;
65996;SDS011;52765;52.258;21.052;2023-04-12T06:15:48;42.90;;;22.00;;
65996;SDS011;52765;52.258;21.052;2023-04-12T06:18:13;34.47;;;18.67;;
65996;SDS011;52765;52.258;21.052;2023-04-12T06:20:39;36.25;;;19.33;;
65996;SDS011;52765;52.258;21.052;2023-04-12T06:23:05;34.88;;;18.60;;
65996;SDS011;52765;52.258;21.052;2023-04-12T06:25:32;38.75;;;18.25;;
65996;SDS011;52765;52.258;21.052;2023-04-12T06:27:58;31.95;;;18.23;;
65996;SDS011;52765;52.258;21.052;2023-04-12T06:30:24;30.77;;;17.45;;
65996;SDS011;52765;52.258;21.052;2023-04-12T06:32:52;34.38;;;19.13;;
65996;SDS011;52765;52.258;21.052;2023-04-12T06:35:18;36.88;;;18.10;;
65996;SDS011;52765;52.258;21.052;2023-04-12T06:37:44;36.25;;;19.10;;
65996;SDS011;52765;52.258;21.052;2023-04-12T06:40:10;35.40;;;18.58;;
65996;SDS011;52765;52.258;21.052;2023-04-12T06:42:36;32.22;;;17.30;;
65996;SDS011;52765;52.258;21.052;2023-04-12T06:45:02;34.78;;;18.75;;
65996;SDS011;52765;52.258;21.052;2023-04-12T06:47:28;34.53;;;17.88;;
65996;SDS011;52765;52.258;21.052;2023-04-12T06:49:54;31.70;;;17.30;;
65996;SDS011;52765;52.258;21.052;2023-04-12T06:52:25;33.85;;;18.10;;
65996;SDS011;52765;52.258;21.052;2023-04-12T06:54:51;29.05;;;16.63;;
65996;SDS011;52765;52.258;21.052;2023-04-12T06:57:17;29.80;;;15.95;;
65996;SDS011;52765;52.258;21.052;2023-04-12T06:59:42;37.25;;;17.50;;
65996;SDS011;52765;52.258;21.052;2023-04-12T07:02:08;36.78;;;18.48;;
65996;SDS011;52765;52.258;21.052;2023-04-12T07:04:33;31.67;;;18.48;;
65996;SDS011;52765;52.258;21.052;2023-04-12T07:06:59;35.67;;;18.42;;
65996;SDS011;52765;52.258;21.052;2023-04-12T07:09:24;34.72;;;17.88;;
65996;SDS011;52765;52.258;21.052;2023-04-12T07:11:50;35.58;;;18.45;;
65996;SDS011;52765;52.258;21.052;2023-04-12T07:14:16;32.50;;;16.90;;
65996;SDS011;52765;52.258;21.052;2023-04-12T07:16:41;36.63;;;18.98;;
65996;SDS011;52765;52.258;21.052;2023-04-12T07:19:07;31.48;;;17.63;;
65996;SDS011;52765;52.258;21.052;2023-04-12T07:21:33;27.95;;;16.50;;
65996;SDS011;52765;52.258;21.052;2023-04-12T07:24:02;31.10;;;17.80;;
65996;SDS011;52765;52.258;21.052;2023-04-12T07:26:27;27.85;;;16.02;;
65996;SDS011;52765;52.258;21.052;2023-04-12T07:28:54;34.20;;;18.10;;
65996;SDS011;52765;52.258;21.052;2023-04-12T07:31:19;29.50;;;17.40;;
65996;SDS011;52765;52.258;21.052;2023-04-12T07:33:45;33.47;;;17.15;;
65996;SDS011;52765;52.258;21.052;2023-04-12T07:36:11;32.70;;;17.38;;
65996;SDS011;52765;52.258;21.052;2023-04-12T07:38:36;31.48;;;16.70;;
65996;SDS011;52765;52.258;21.052;2023-04-12T07:41:02;25.83;;;15.25;;
65996;SDS011;52765;52.258;21.052;2023-04-12T07:43:27;29.17;;;16.85;;
65996;SDS011;52765;52.258;21.052;2023-04-12T07:45:53;30.60;;;16.77;;
65996;SDS011;52765;52.258;21.052;2023-04-12T07:48:20;35.25;;;17.33;;
65996;SDS011;52765;52.258;21.052;2023-04-12T07:50:45;29.55;;;16.75;;
65996;SDS011;52765;52.258;21.052;2023-04-12T07:53:21;23.05;;;14.73;;
65996;SDS011;52765;52.258;21.052;2023-04-12T07:55:49;32.97;;;16.02;;
65996;SDS011;52765;52.258;21.052;2023-04-12T07:58:15;23.65;;;14.93;;
65996;SDS011;52765;52.258;21.052;2023-04-12T08:00:42;31.98;;;16.30;;
65996;SDS011;52765;52.258;21.052;2023-04-12T08:03:10;27.90;;;16.05;;
65996;SDS011;52765;52.258;21.052;2023-04-12T08:05:42;28.48;;;16.85;;
65996;SDS011;52765;52.258;21.052;2023-04-12T08:08:08;30.67;;;17.02;;
65996;SDS011;52765;52.258;21.052;2023-04-12T08:10:35;28.15;;;15.75;;
65996;SDS011;52765;52.258;21.052;2023-04-12T08:13:04;27.75;;;16.42;;
65996;SDS011;52765;52.258;21.052;2023-04-12T08:15:33;23.30;;;14.55;;
65996;SDS011;52765;52.258;21.052;2023-04-12T08:18:07;25.70;;;14.60;;
65996;SDS011;52765;52.258;21.052;2023-04-12T08:20:34;29.40;;;16.35;;
65996;SDS011;52765;52.258;21.052;2023-04-12T08:23:00;26.08;;;15.45;;
65996;SDS011;52765;52.258;21.052;2023-04-12T08:25:26;31.88;;;17.23;;
65996;SDS011;52765;52.258;21.052;2023-04-12T08:27:51;28.45;;;16.65;;
65996;SDS011;52765;52.258;21.052;2023-04-12T08:30:17;32.65;;;16.83;;
65996;SDS011;52765;52.258;21.052;2023-04-12T08:32:43;23.95;;;15.45;;
65996;SDS011;52765;52.258;21.052;2023-04-12T08:35:08;36.97;;;17.00;;
65996;SDS011;52765;52.258;21.052;2023-04-12T08:37:34;24.65;;;14.70;;
65996;SDS011;52765;52.258;21.052;2023-04-12T08:40:04;30.35;;;15.55;;
65996;SDS011;52765;52.258;21.052;2023-04-12T08:42:34;31.92;;;15.02;;
65996;SDS011;52765;52.258;21.052;2023-04-12T08:45:08;23.85;;;14.88;;
65996;SDS011;52765;52.258;21.052;2023-04-12T08:47:42;25.60;;;15.15;;
65996;SDS011;52765;52.258;21.052;2023-04-12T08:50:12;29.27;;;15.05;;
65996;SDS011;52765;52.258;21.052;2023-04-12T08:52:41;24.38;;;15.38;;
65996;SDS011;52765;52.258;21.052;2023-04-12T08:55:13;26.90;;;15.13;;
65996;SDS011;52765;52.258;21.052;2023-04-12T08:57:40;26.90;;;14.45;;
65996;SDS011;52765;52.258;21.052;2023-04-12T09:00:09;28.25;;;15.32;;
65996;SDS011;52765;52.258;21.052;2023-04-12T09:02:38;24.58;;;14.88;;
65996;SDS011;52765;52.258;21.052;2023-04-12T09:05:07;25.83;;;15.02;;
65996;SDS011;52765;52.258;21.052;2023-04-12T09:07:34;28.98;;;15.48;;
65996;SDS011;52765;52.258;21.052;2023-04-12T09:10:00;27.35;;;14.43;;
65996;SDS011;52765;52.258;21.052;2023-04-12T09:12:26;26.52;;;13.95;;
65996;SDS011;52765;52.258;21.052;2023-04-12T09:15:08;28.08;;;14.93;;
65996;SDS011;52765;52.258;21.052;2023-04-12T09:17:36;24.88;;;14.52;;
65996;SDS011;52765;52.258;21.052;2023-04-12T09:22:41;27.63;;;15.13;;
65996;SDS011;52765;52.258;21.052;2023-04-12T09:25:11;28.13;;;14.60;;
65996;SDS011;52765;52.258;21.052;2023-04-12T09:27:46;26.42;;;14.85;;
65996;SDS011;52765;52.258;21.052;2023-04-12T09:30:16;27.60;;;15.00;;
65996;SDS011;52765;52.258;21.052;2023-04-12T09:32:43;26.75;;;14.05;;
65996;SDS011;52765;52.258;21.052;2023-04-12T09:35:09;27.70;;;14.75;;
65996;SDS011;52765;52.258;21.052;2023-04-12T09:37:35;25.05;;;14.27;;
65996;SDS011;52765;52.258;21.052;2023-04-12T09:40:04;21.48;;;13.02;;
65996;SDS011;52765;52.258;21.052;2023-04-12T09:42:32;27.75;;;15.95;;
65996;SDS011;52765;52.258;21.052;2023-04-12T09:44:58;23.50;;;13.82;;
65996;SDS011;52765;52.258;21.052;2023-04-12T09:47:35;29.52;;;16.35;;
65996;SDS011;52765;52.258;21.052;2023-04-12T09:50:07;26.23;;;15.77;;
65996;SDS011;52765;52.258;21.052;2023-04-12T09:52:43;26.83;;;15.63;;
65996;SDS011;52765;52.258;21.052;2023-04-12T09:55:09;27.85;;;17.40;;
65996;SDS011;52765;52.258;21.052;2023-04-12T09:57:39;36.10;;;18.40;;
65996;SDS011;52765;52.258;21.052;2023-04-12T10:00:06;27.25;;;16.13;;
65996;SDS011;52765;52.258;21.052;2023-04-12T10:02:36;28.65;;;16.70;;
65996;SDS011;52765;52.258;21.052;2023-04-12T10:05:09;27.80;;;15.57;;
65996;SDS011;52765;52.258;21.052;2023-04-12T10:07:43;25.75;;;14.60;;
65996;SDS011;52765;52.258;21.052;2023-04-12T10:10:10;27.90;;;17.10;;
65996;SDS011;52765;52.258;21.052;2023-04-12T10:12:37;23.33;;;14.50;;
65996;SDS011;52765;52.258;21.052;2023-04-12T10:15:05;24.05;;;15.52;;
65996;SDS011;52765;52.258;21.052;2023-04-12T10:17:36;21.85;;;13.48;;
65996;SDS011;52765;52.258;21.052;2023-04-12T10:20:07;27.00;;;14.43;;
65996;SDS011;52765;52.258;21.052;2023-04-12T10:22:34;26.90;;;15.52;;
65996;SDS011;52765;52.258;21.052;2023-04-12T10:25:00;27.25;;;15.10;;
65996;SDS011;52765;52.258;21.052;2023-04-12T10:27:26;24.92;;;14.88;;
65996;SDS011;52765;52.258;21.052;2023-04-12T10:29:52;22.60;;;13.52;;
65996;SDS011;52765;52.258;21.052;2023-04-12T10:32:41;28.25;;;15.45;;
65996;SDS011;52765;52.258;21.052;2023-04-12T10:35:07;24.17;;;14.40;;
65996;SDS011;52765;52.258;21.052;2023-04-12T10:40:31;23.35;;;14.80;;
65996;SDS011;52765;52.258;21.052;2023-04-12T10:45:49;22.48;;;14.93;;
65996;SDS011;52765;52.258;21.052;2023-04-12T10:54:35;23.20;;;13.88;;
65996;SDS011;52765;52.258;21.052;2023-04-12T10:56:36;23.55;;;14.55;;
65996;SDS011;52765;52.258;21.052;2023-04-12T10:59:02;28.55;;;16.67;;
65996;SDS011;52765;52.258;21.052;2023-04-12T11:01:32;21.50;;;14.15;;
65996;SDS011;52765;52.258;21.052;2023-04-12T11:14:36;22.02;;;14.13;;
65996;SDS011;52765;52.258;21.052;2023-04-12T11:19:39;21.02;;;12.48;;
65996;SDS011;52765;52.258;21.052;2023-04-12T11:22:06;22.33;;;14.05;;
65996;SDS011;52765;52.258;21.052;2023-04-12T11:24:36;24.38;;;13.88;;
65996;SDS011;52765;52.258;21.052;2023-04-12T11:27:03;29.88;;;18.05;;
65996;SDS011;52765;52.258;21.052;2023-04-12T11:29:30;23.98;;;13.52;;
65996;SDS011;52765;52.258;21.052;2023-04-12T11:31:59;21.20;;;12.82;;
65996;SDS011;52765;52.258;21.052;2023-04-12T11:34:31;21.33;;;12.35;;
65996;SDS011;52765;52.258;21.052;2023-04-12T11:36:58;22.35;;;13.07;;
65996;SDS011;52765;52.258;21.052;2023-04-12T11:39:24;20.48;;;13.48;;
65996;SDS011;52765;52.258;21.052;2023-04-12T11:41:53;24.85;;;12.18;;
65996;SDS011;52765;52.258;21.052;2023-04-12T11:44:19;20.08;;;11.57;;
65996;SDS011;52765;52.258;21.052;2023-04-12T11:46:47;25.30;;;13.27;;
65996;SDS011;52765;52.258;21.052;2023-04-12T11:49:19;22.83;;;12.98;;
65996;SDS011;52765;52.258;21.052;2023-04-12T11:51:45;20.98;;;13.88;;
65996;SDS011;52765;52.258;21.052;2023-04-12T11:54:11;26.42;;;12.57;;
65996;SDS011;52765;52.258;21.052;2023-04-12T11:56:38;18.67;;;11.70;;
65996;SDS011;52765;52.258;21.052;2023-04-12T11:59:04;21.42;;;11.93;;
65996;SDS011;52765;52.258;21.052;2023-04-12T12:01:30;22.23;;;12.30;;
65996;SDS011;52765;52.258;21.052;2023-04-12T12:03:57;21.25;;;13.45;;
65996;SDS011;52765;52.258;21.052;2023-04-12T12:06:23;22.35;;;13.90;;
65996;SDS011;52765;52.258;21.052;2023-04-12T12:08:50;26.08;;;14.07;;
65996;SDS011;52765;52.258;21.052;2023-04-12T12:11:17;23.65;;;13.52;;
65996;SDS011;52765;52.258;21.052;2023-04-12T12:13:46;20.92;;;13.88;;
65996;SDS011;52765;52.258;21.052;2023-04-12T12:16:12;20.80;;;13.07;;
65996;SDS011;52765;52.258;21.052;2023-04-12T12:18:39;19.23;;;11.35;;
65996;SDS011;52765;52.258;21.052;2023-04-12T12:21:09;26.42;;;13.32;;
65996;SDS011;52765;52.258;21.052;2023-04-12T12:23:36;23.63;;;13.23;;
65996;SDS011;52765;52.258;21.052;2023-04-12T12:26:02;23.60;;;13.32;;
65996;SDS011;52765;52.258;21.052;2023-04-12T12:28:29;25.48;;;13.48;;
65996;SDS011;52765;52.258;21.052;2023-04-12T12:30:57;18.55;;;12.00;;
65996;SDS011;52765;52.258;21.052;2023-04-12T12:33:23;16.00;;;11.05;;
65996;SDS011;52765;52.258;21.052;2023-04-12T12:35:55;18.80;;;12.75;;
65996;SDS011;52765;52.258;21.052;2023-04-12T12:38:21;18.17;;;11.75;;
65996;SDS011;52765;52.258;21.052;2023-04-12T12:40:47;16.13;;;10.90;;
65996;SDS011;52765;52.258;21.052;2023-04-12T12:43:16;19.15;;;11.48;;
65996;SDS011;52765;52.258;21.052;2023-04-12T12:45:43;20.25;;;11.70;;
65996;SDS011;52765;52.258;21.052;2023-04-12T12:48:09;23.40;;;11.52;;
65996;SDS011;52765;52.258;21.052;2023-04-12T12:50:34;17.75;;;11.07;;
65996;SDS011;52765;52.258;21.052;2023-04-12T12:53:00;17.88;;;10.65;;
65996;SDS011;52765;52.258;21.052;2023-04-12T12:55:27;12.98;;;9.05;;
65996;SDS011;52765;52.258;21.052;2023-04-12T12:57:55;21.42;;;11.07;;
65996;SDS011;52765;52.258;21.052;2023-04-12T13:00:23;15.35;;;11.45;;
65996;SDS011;52765;52.258;21.052;2023-04-12T13:02:50;20.50;;;11.95;;
65996;SDS011;52765;52.258;21.052;2023-04-12T13:05:16;19.00;;;11.95;;
65996;SDS011;52765;52.258;21.052;2023-04-12T13:07:42;15.82;;;10.18;;
65996;SDS011;52765;52.258;21.052;2023-04-12T13:10:08;14.07;;;10.43;;
65996;SDS011;52765;52.258;21.052;2023-04-12T13:12:34;32.10;;;13.55;;
65996;SDS011;52765;52.258;21.052;2023-04-12T13:15:00;22.42;;;12.52;;
65996;SDS011;52765;52.258;21.052;2023-04-12T13:17:28;17.38;;;11.02;;
65996;SDS011;52765;52.258;21.052;2023-04-12T13:19:55;13.75;;;9.60;;
65996;SDS011;52765;52.258;21.052;2023-04-12T13:22:21;14.80;;;10.05;;
65996;SDS011;52765;52.258;21.052;2023-04-12T13:24:52;19.20;;;12.00;;
65996;SDS011;52765;52.258;21.052;2023-04-12T13:27:17;15.52;;;10.90;;
65996;SDS011;52765;52.258;21.052;2023-04-12T13:29:43;17.45;;;11.18;;
65996;SDS011;52765;52.258;21.052;2023-04-12T13:32:08;16.65;;;10.13;;
65996;SDS011;52765;52.258;21.052;2023-04-12T13:34:34;17.13;;;10.15;;
65996;SDS011;52765;52.258;21.052;2023-04-12T13:37:00;20.08;;;10.75;;
65996;SDS011;52765;52.258;21.052;2023-04-12T13:39:27;15.60;;;10.48;;
65996;SDS011;52765;52.258;21.052;2023-04-12T13:41:52;16.08;;;9.90;;
65996;SDS011;52765;52.258;21.052;2023-04-12T13:44:18;21.17;;;11.13;;
65996;SDS011;52765;52.258;21.052;2023-04-12T13:46:44;20.75;;;10.85;;
65996;SDS011;52765;52.258;21.052;2023-04-12T13:49:09;24.23;;;11.48;;
65996;SDS011;52765;52.258;21.052;2023-04-12T13:51:35;15.10;;;9.93;;
65996;SDS011;52765;52.258;21.052;2023-04-12T13:54:00;13.88;;;8.88;;
65996;SDS011;52765;52.258;21.052;2023-04-12T13:56:26;26.73;;;12.63;;
65996;SDS011;52765;52.258;21.052;2023-04-12T13:58:51;16.55;;;9.65;;
65996;SDS011;52765;52.258;21.052;2023-04-12T14:01:17;16.65;;;10.27;;
65996;SDS011;52765;52.258;21.052;2023-04-12T14:03:43;13.38;;;8.88;;
65996;SDS011;52765;52.258;21.052;2023-04-12T14:06:08;16.33;;;9.90;;
65996;SDS011;52765;52.258;21.052;2023-04-12T14:08:34;17.95;;;9.50;;
65996;SDS011;52765;52.258;21.052;2023-04-12T14:11:01;13.40;;;8.65;;
65996;SDS011;52765;52.258;21.052;2023-04-12T14:13:28;20.65;;;10.80;;
65996;SDS011;52765;52.258;21.052;2023-04-12T14:15:54;15.32;;;10.55;;
65996;SDS011;52765;52.258;21.052;2023-04-12T14:18:21;28.55;;;12.40;;
65996;SDS011;52765;52.258;21.052;2023-04-12T14:20:58;19.20;;;10.65;;
65996;SDS011;52765;52.258;21.052;2023-04-12T14:23:23;20.83;;;9.82;;
65996;SDS011;52765;52.258;21.052;2023-04-12T14:25:50;15.30;;;8.90;;
65996;SDS011;52765;52.258;21.052;2023-04-12T14:28:16;29.05;;;11.32;;
65996;SDS011;52765;52.258;21.052;2023-04-12T14:30:54;18.55;;;11.07;;
65996;SDS011;52765;52.258;21.052;2023-04-12T14:33:22;20.63;;;10.20;;
65996;SDS011;52765;52.258;21.052;2023-04-12T14:35:49;19.05;;;11.35;;
65996;SDS011;52765;52.258;21.052;2023-04-12T14:38:14;14.32;;;8.98;;
65996;SDS011;52765;52.258;21.052;2023-04-12T14:40:41;14.48;;;9.32;;
65996;SDS011;52765;52.258;21.052;2023-04-12T14:43:07;19.30;;;11.30;;
65996;SDS011;52765;52.258;21.052;2023-04-12T14:45:32;15.50;;;10.07;;
65996;SDS011;52765;52.258;21.052;2023-04-12T14:48:01;15.65;;;11.00;;
65996;SDS011;52765;52.258;21.052;2023-04-12T14:50:26;40.95;;;12.60;;
65996;SDS011;52765;52.258;21.052;2023-04-12T14:52:52;24.75;;;12.40;;